Hegina — 3ETX2 — position and weather

sailwx.info

Track history (hours):
 
Tides and Currents Weather Stations Pressure Air Temp Water Temp Dewpoint Dewpoint Depression Visibility Wind Speed Wind Dir Waves Ship Positions

Hegina

Last reported at 2014-Oct-11 05:34 UTC. Time now 2014-Oct-23 02:21 UTC.
Position N 50°34' E 000°20'.
Warning: this ship's position is 11 days out of date.

Length 138 m; draft 8 m.

Type: Cargo ship. MMSI: 372427000.

Date/timePositionNaut miles runAvg speedWind from/ knotsBaromVisibWave heightAir tempDewpointWater temp
2014-Oct-11 05:34N 50°34' E 000°20'1413.7
2014-Oct-11 04:33N 50°39' E 000°40'1312.9
2014-Oct-11 03:33N 50°46' E 000°57'1611.6
2014-Oct-11 02:13N 50°54' E 001°18'6 9.9
2014-Oct-11 01:34N 50°59' E 001°25'9 9.2
2014-Oct-11 00:34N 51°06' E 001°35'1110.5
2014-Oct-10 23:33N 51°14' E 001°46'1413.6
2014-Oct-10 22:33N 51°25' E 001°59'1313.3
2014-Oct-10 21:33N 51°21' E 002°20'1414.1
2014-Oct-10 20:33N 51°22' E 002°42'1313.2
2014-Oct-10 19:33N 51°25' E 003°03'1515.0
2014-Oct-10 18:34N 51°25' E 003°27'1212.1
2014-Oct-10 17:33N 51°22' E 003°45'1110.7
2014-Oct-10 16:34N 51°24' E 004°02'9 9.5
2014-Oct-10 15:34N 51°21' E 004°16'1 0.6
2014-Oct-10 14:34N 51°21' E 004°17'0 0.1
2014-Oct-10 13:33N 51°21' E 004°17'4 4.2
2014-Oct-10 12:33N 51°17' E 004°21'1 1.3
2014-Oct-10 11:31N 51°16' E 004°22'0 0.0
2014-Oct-10 10:28N 51°16' E 004°22'0 0.0
2014-Oct-10 09:31N 51°16' E 004°22'0 0.0
2014-Oct-10 08:31N 51°16' E 004°22'0 0.0
2014-Oct-10 07:31N 51°16' E 004°22'0 0.0
2014-Oct-10 06:31N 51°16' E 004°22'0 0.0
2014-Oct-10 05:31N 51°16' E 004°22'0 0.0
2014-Oct-10 04:31N 51°16' E 004°22'0 0.0
2014-Oct-10 03:31N 51°16' E 004°22'0 0.0
2014-Oct-10 02:28N 51°16' E 004°22'0 0.0
2014-Oct-10 01:31N 51°16' E 004°22'0 0.0
2014-Oct-10 00:31N 51°16' E 004°22'0 0.0
2014-Oct-09 23:31N 51°16' E 004°22'0 0.0
2014-Oct-09 22:31N 51°16' E 004°22'0 0.0
2014-Oct-09 21:31N 51°16' E 004°22'0 0.0
2014-Oct-09 20:31N 51°16' E 004°22'0 0.0
2014-Oct-09 19:31N 51°16' E 004°22'0 0.0
2014-Oct-09 18:31N 51°16' E 004°22'0 0.0
2014-Oct-09 17:31N 51°16' E 004°22'0 0.0
2014-Oct-09 16:31N 51°16' E 004°22'0 0.0
2014-Oct-09 15:31N 51°16' E 004°22'0 0.0
2014-Oct-09 14:31N 51°16' E 004°22'0 0.0
2014-Oct-09 13:28N 51°16' E 004°22'0 0.0
2014-Oct-09 12:31N 51°16' E 004°22'0 0.0
2014-Oct-09 11:31N 51°16' E 004°22'0 0.0
2014-Oct-09 10:31N 51°16' E 004°22'0 0.0
2014-Oct-09 09:31N 51°16' E 004°22'0 0.0
2014-Oct-09 08:31N 51°16' E 004°22'0 0.0
2014-Oct-09 07:31N 51°16' E 004°22'0 0.0
2014-Oct-09 06:31N 51°16' E 004°22'0 0.0
2014-Oct-09 05:31N 51°16' E 004°22'0 0.0
2014-Oct-09 04:31N 51°16' E 004°22'0 0.0
2014-Oct-09 03:31N 51°16' E 004°22'0 0.0
2014-Oct-09 02:31N 51°16' E 004°22'0 0.0
2014-Oct-09 01:31N 51°16' E 004°22'0 0.0
2014-Oct-09 00:31N 51°16' E 004°22'0 0.0
2014-Oct-08 23:31N 51°16' E 004°22'0 0.0
2014-Oct-08 22:31N 51°16' E 004°22'0 0.0
2014-Oct-08 21:31N 51°16' E 004°22'0 0.0
2014-Oct-08 20:31N 51°16' E 004°22'0 0.0
2014-Oct-08 19:31N 51°16' E 004°22'0 0.0
2014-Oct-08 18:31N 51°16' E 004°22'0 0.0
2014-Oct-08 17:31N 51°16' E 004°22'0 0.0
2014-Oct-08 16:31N 51°16' E 004°22'0 0.0
2014-Oct-08 15:31N 51°16' E 004°22'0 0.0
2014-Oct-08 14:31N 51°16' E 004°22'0 0.0
2014-Oct-08 13:31N 51°16' E 004°22'0 0.0
2014-Oct-08 12:31N 51°16' E 004°22'0 0.0
2014-Oct-08 11:31N 51°16' E 004°22'0 0.0
2014-Oct-08 10:31N 51°16' E 004°22'0 0.0
2014-Oct-08 09:31N 51°16' E 004°22'0 0.0
2014-Oct-08 08:31N 51°16' E 004°22'0 0.0
2014-Oct-08 07:31N 51°16' E 004°22'0 0.0
2014-Oct-08 06:31N 51°16' E 004°22'0 0.0
2014-Oct-08 05:31N 51°16' E 004°22'0 0.0
2014-Oct-08 04:31N 51°16' E 004°22'0 0.0
2014-Oct-08 03:31N 51°16' E 004°22'0 0.0
2014-Oct-08 02:31N 51°16' E 004°22'0 0.0
2014-Oct-08 01:31N 51°16' E 004°22'0 0.0
2014-Oct-08 00:34N 51°16' E 004°22'0 0.0
2014-Oct-07 23:31N 51°16' E 004°22'0 0.0
2014-Oct-07 22:31N 51°16' E 004°22'0 0.0
2014-Oct-07 21:31N 51°16' E 004°22'0 0.0
2014-Oct-07 20:31N 51°16' E 004°22'0 0.0
2014-Oct-07 19:31N 51°16' E 004°22'0 0.0
2014-Oct-07 18:31N 51°16' E 004°22'0 0.0
2014-Oct-07 17:31N 51°16' E 004°22'0 0.0
2014-Oct-07 16:31N 51°16' E 004°22'0 0.0
2014-Oct-07 15:31N 51°16' E 004°22'0 0.0
2014-Oct-07 14:31N 51°16' E 004°22'0 0.0
2014-Oct-07 13:28N 51°16' E 004°22'0 0.0
2014-Oct-07 12:31N 51°16' E 004°22'0 0.0
2014-Oct-07 11:31N 51°16' E 004°22'0 0.0
2014-Oct-07 10:31N 51°16' E 004°22'0 0.0
2014-Oct-07 09:28N 51°16' E 004°22'0 0.0
2014-Oct-07 08:31N 51°16' E 004°22'4 3.9
2014-Oct-07 07:33N 51°19' E 004°19'2 1.9
2014-Oct-07 06:33N 51°21' E 004°17'0 0.1
2014-Oct-07 05:33N 51°21' E 004°17'3 2.8
2014-Oct-07 04:33N 51°22' E 004°13'7 6.6
2014-Oct-07 03:34N 51°23' E 004°03'6 6.0
2014-Oct-07 02:33N 51°21' E 003°53'1110.6
2014-Oct-07 01:34N 51°25' E 003°37'2 1.5
2014-Oct-07 00:32N 51°25' E 003°35'0 0.0
2014-Oct-06 23:29N 51°25' E 003°35'5 5.8
2014-Oct-06 22:34N 51°25' E 003°26'1313.0
2014-Oct-06 21:33N 51°24' E 003°05'1413.9
2014-Oct-06 20:34N 51°22' E 002°43'1312.3
2014-Oct-06 19:31N 51°20' E 002°23'1212.4
2014-Oct-06 18:34N 51°14' E 002°07'1212.0
2014-Oct-06 17:33N 51°08' E 001°50'1211.8
2014-Oct-06 16:32N 50°60' E 001°36'3812.6
2014-Oct-06 13:30N 50°30' E 000°59'1212.6
2014-Oct-06 12:33N 50°27' E 000°41'1312.6
2014-Oct-06 11:33N 50°24' E 000°21'269 7.4
2014-Oct-04 23:24N 46°16' W 002°17'2110.7
2014-Oct-04 21:26N 46°02' W 001°54'8310.6
2014-Oct-04 13:33N 45°01' W 000°34'  
2014-Oct-02 06:26N 45°35' W 001°25'5 1.5
2014-Oct-02 03:07N 45°32' W 001°30'0 0.4
2014-Oct-02 02:16N 45°32' W 001°29'19812.5
2014-Oct-01 10:24N 47°51' W 004°55'1213.8
2014-Oct-01 09:30N 47°59' W 005°09'  
Track history (hours):
 
Tides and Currents Weather Stations Pressure Air Temp Water Temp Dewpoint Dewpoint Depression Visibility Wind Speed Wind Dir Waves Ship Positions

Hegina

Last reported at 2014-Oct-11 05:34 UTC. Time now 2014-Oct-23 02:21 UTC.
Position N 50°34' E 000°20'.
Warning: this ship's position is 11 days out of date.

Length 138 m; draft 8 m.

Type: Cargo ship. MMSI: 372427000.

Date/timePositionNaut miles runAvg speedWind from/ knotsBaromVisibWave heightAir tempDewpointWater temp
2014-Oct-11 05:34N 50°34' E 000°20'1413.7
2014-Oct-11 04:33N 50°39' E 000°40'1312.9
2014-Oct-11 03:33N 50°46' E 000°57'1611.6
2014-Oct-11 02:13N 50°54' E 001°18'6 9.9
2014-Oct-11 01:34N 50°59' E 001°25'9 9.2
2014-Oct-11 00:34N 51°06' E 001°35'1110.5
2014-Oct-10 23:33N 51°14' E 001°46'1413.6
2014-Oct-10 22:33N 51°25' E 001°59'1313.3
2014-Oct-10 21:33N 51°21' E 002°20'1414.1
2014-Oct-10 20:33N 51°22' E 002°42'1313.2
2014-Oct-10 19:33N 51°25' E 003°03'1515.0
2014-Oct-10 18:34N 51°25' E 003°27'1212.1
2014-Oct-10 17:33N 51°22' E 003°45'1110.7
2014-Oct-10 16:34N 51°24' E 004°02'9 9.5
2014-Oct-10 15:34N 51°21' E 004°16'1 0.6
2014-Oct-10 14:34N 51°21' E 004°17'0 0.1
2014-Oct-10 13:33N 51°21' E 004°17'4 4.2
2014-Oct-10 12:33N 51°17' E 004°21'1 1.3
2014-Oct-10 11:31N 51°16' E 004°22'0 0.0
2014-Oct-10 10:28N 51°16' E 004°22'0 0.0
2014-Oct-10 09:31N 51°16' E 004°22'0 0.0
2014-Oct-10 08:31N 51°16' E 004°22'0 0.0
2014-Oct-10 07:31N 51°16' E 004°22'0 0.0
2014-Oct-10 06:31N 51°16' E 004°22'0 0.0
2014-Oct-10 05:31N 51°16' E 004°22'0 0.0
2014-Oct-10 04:31N 51°16' E 004°22'0 0.0
2014-Oct-10 03:31N 51°16' E 004°22'0 0.0
2014-Oct-10 02:28N 51°16' E 004°22'0 0.0
2014-Oct-10 01:31N 51°16' E 004°22'0 0.0
2014-Oct-10 00:31N 51°16' E 004°22'0 0.0
2014-Oct-09 23:31N 51°16' E 004°22'0 0.0
2014-Oct-09 22:31N 51°16' E 004°22'0 0.0
2014-Oct-09 21:31N 51°16' E 004°22'0 0.0
2014-Oct-09 20:31N 51°16' E 004°22'0 0.0
2014-Oct-09 19:31N 51°16' E 004°22'0 0.0
2014-Oct-09 18:31N 51°16' E 004°22'0 0.0
2014-Oct-09 17:31N 51°16' E 004°22'0 0.0
2014-Oct-09 16:31N 51°16' E 004°22'0 0.0
2014-Oct-09 15:31N 51°16' E 004°22'0 0.0
2014-Oct-09 14:31N 51°16' E 004°22'0 0.0
2014-Oct-09 13:28N 51°16' E 004°22'0 0.0
2014-Oct-09 12:31N 51°16' E 004°22'0 0.0
2014-Oct-09 11:31N 51°16' E 004°22'0 0.0
2014-Oct-09 10:31N 51°16' E 004°22'0 0.0
2014-Oct-09 09:31N 51°16' E 004°22'0 0.0
2014-Oct-09 08:31N 51°16' E 004°22'0 0.0
2014-Oct-09 07:31N 51°16' E 004°22'0 0.0
2014-Oct-09 06:31N 51°16' E 004°22'0 0.0
2014-Oct-09 05:31N 51°16' E 004°22'0 0.0
2014-Oct-09 04:31N 51°16' E 004°22'0 0.0
2014-Oct-09 03:31N 51°16' E 004°22'0 0.0
2014-Oct-09 02:31N 51°16' E 004°22'0 0.0
2014-Oct-09 01:31N 51°16' E 004°22'0 0.0
2014-Oct-09 00:31N 51°16' E 004°22'0 0.0
2014-Oct-08 23:31N 51°16' E 004°22'0 0.0
2014-Oct-08 22:31N 51°16' E 004°22'0 0.0
2014-Oct-08 21:31N 51°16' E 004°22'0 0.0
2014-Oct-08 20:31N 51°16' E 004°22'0 0.0
2014-Oct-08 19:31N 51°16' E 004°22'0 0.0
2014-Oct-08 18:31N 51°16' E 004°22'0 0.0
2014-Oct-08 17:31N 51°16' E 004°22'0 0.0
2014-Oct-08 16:31N 51°16' E 004°22'0 0.0
2014-Oct-08 15:31N 51°16' E 004°22'0 0.0
2014-Oct-08 14:31N 51°16' E 004°22'0 0.0
2014-Oct-08 13:31N 51°16' E 004°22'0 0.0
2014-Oct-08 12:31N 51°16' E 004°22'0 0.0
2014-Oct-08 11:31N 51°16' E 004°22'0 0.0
2014-Oct-08 10:31N 51°16' E 004°22'0 0.0
2014-Oct-08 09:31N 51°16' E 004°22'0 0.0
2014-Oct-08 08:31N 51°16' E 004°22'0 0.0
2014-Oct-08 07:31N 51°16' E 004°22'0 0.0
2014-Oct-08 06:31N 51°16' E 004°22'0 0.0
2014-Oct-08 05:31N 51°16' E 004°22'0 0.0
2014-Oct-08 04:31N 51°16' E 004°22'0 0.0
2014-Oct-08 03:31N 51°16' E 004°22'0 0.0
2014-Oct-08 02:31N 51°16' E 004°22'0 0.0
2014-Oct-08 01:31N 51°16' E 004°22'0 0.0
2014-Oct-08 00:34N 51°16' E 004°22'0 0.0
2014-Oct-07 23:31N 51°16' E 004°22'0 0.0
2014-Oct-07 22:31N 51°16' E 004°22'0 0.0
2014-Oct-07 21:31N 51°16' E 004°22'0 0.0
2014-Oct-07 20:31N 51°16' E 004°22'0 0.0
2014-Oct-07 19:31N 51°16' E 004°22'0 0.0
2014-Oct-07 18:31N 51°16' E 004°22'0 0.0
2014-Oct-07 17:31N 51°16' E 004°22'0 0.0
2014-Oct-07 16:31N 51°16' E 004°22'0 0.0
2014-Oct-07 15:31N 51°16' E 004°22'0 0.0
2014-Oct-07 14:31N 51°16' E 004°22'0 0.0
2014-Oct-07 13:28N 51°16' E 004°22'0 0.0
2014-Oct-07 12:31N 51°16' E 004°22'0 0.0
2014-Oct-07 11:31N 51°16' E 004°22'0 0.0
2014-Oct-07 10:31N 51°16' E 004°22'0 0.0
2014-Oct-07 09:28N 51°16' E 004°22'0 0.0
2014-Oct-07 08:31N 51°16' E 004°22'4 3.9
2014-Oct-07 07:33N 51°19' E 004°19'2 1.9
2014-Oct-07 06:33N 51°21' E 004°17'0 0.1
2014-Oct-07 05:33N 51°21' E 004°17'3 2.8
2014-Oct-07 04:33N 51°22' E 004°13'7 6.6
2014-Oct-07 03:34N 51°23' E 004°03'6 6.0
2014-Oct-07 02:33N 51°21' E 003°53'1110.6
2014-Oct-07 01:34N 51°25' E 003°37'2 1.5
2014-Oct-07 00:32N 51°25' E 003°35'0 0.0
2014-Oct-06 23:29N 51°25' E 003°35'5 5.8
2014-Oct-06 22:34N 51°25' E 003°26'1313.0
2014-Oct-06 21:33N 51°24' E 003°05'1413.9
2014-Oct-06 20:34N 51°22' E 002°43'1312.3
2014-Oct-06 19:31N 51°20' E 002°23'1212.4
2014-Oct-06 18:34N 51°14' E 002°07'1212.0
2014-Oct-06 17:33N 51°08' E 001°50'1211.8
2014-Oct-06 16:32N 50°60' E 001°36'3812.6
2014-Oct-06 13:30N 50°30' E 000°59'1212.6
2014-Oct-06 12:33N 50°27' E 000°41'1312.6
2014-Oct-06 11:33N 50°24' E 000°21'269 7.4
2014-Oct-04 23:24N 46°16' W 002°17'2110.7
2014-Oct-04 21:26N 46°02' W 001°54'8310.6
2014-Oct-04 13:33N 45°01' W 000°34'  
2014-Oct-02 06:26N 45°35' W 001°25'5 1.5
2014-Oct-02 03:07N 45°32' W 001°30'0 0.4
2014-Oct-02 02:16N 45°32' W 001°29'19812.5
2014-Oct-01 10:24N 47°51' W 004°55'1213.8
2014-Oct-01 09:30N 47°59' W 005°09'  

Dump ship's entire track history